sensor_id;sensor_type;location;lat;lon;timestamp;pressure;altitude;pressure_sealevel;temperature;humidity
15272;BME280;7737;51.578;7.268;2023-12-29T00:01:36;100336.00;;;11.18;100.00
15272;BME280;7737;51.578;7.268;2023-12-29T00:04:03;100336.78;;;11.20;100.00
15272;BME280;7737;51.578;7.268;2023-12-29T00:06:30;100333.34;;;11.18;100.00
15272;BME280;7737;51.578;7.268;2023-12-29T00:08:56;100333.53;;;11.15;100.00
15272;BME280;7737;51.578;7.268;2023-12-29T00:11:22;100331.66;;;11.17;100.00
15272;BME280;7737;51.578;7.268;2023-12-29T00:13:49;100325.97;;;11.23;100.00
15272;BME280;7737;51.578;7.268;2023-12-29T00:16:15;100309.91;;;11.25;100.00
15272;BME280;7737;51.578;7.268;2023-12-29T00:18:44;100308.47;;;11.19;100.00
15272;BME280;7737;51.578;7.268;2023-12-29T00:21:11;100308.47;;;11.19;100.00
15272;BME280;7737;51.578;7.268;2023-12-29T00:23:37;100301.59;;;11.15;100.00
15272;BME280;7737;51.578;7.268;2023-12-29T00:26:04;100300.56;;;11.18;100.00
15272;BME280;7737;51.578;7.268;2023-12-29T00:28:30;100304.00;;;11.20;100.00
15272;BME280;7737;51.578;7.268;2023-12-29T00:30:57;100298.00;;;11.16;100.00
15272;BME280;7737;51.578;7.268;2023-12-29T00:33:24;100307.63;;;11.19;100.00
15272;BME280;7737;51.578;7.268;2023-12-29T00:35:53;100294.53;;;11.30;100.00
15272;BME280;7737;51.578;7.268;2023-12-29T00:38:20;100311.72;;;11.24;100.00
15272;BME280;7737;51.578;7.268;2023-12-29T00:40:46;100303.81;;;11.23;100.00
15272;BME280;7737;51.578;7.268;2023-12-29T00:43:13;100288.53;;;11.26;100.00
15272;BME280;7737;51.578;7.268;2023-12-29T00:45:39;100308.09;;;11.25;100.00
15272;BME280;7737;51.578;7.268;2023-12-29T00:48:06;100314.28;;;11.26;100.00
15272;BME280;7737;51.578;7.268;2023-12-29T00:50:33;100320.38;;;11.28;100.00
15272;BME280;7737;51.578;7.268;2023-12-29T00:53:01;100297.38;;;11.27;100.00
15272;BME280;7737;51.578;7.268;2023-12-29T00:55:27;100289.13;;;11.31;100.00
15272;BME280;7737;51.578;7.268;2023-12-29T00:57:54;100291.00;;;11.29;100.00
15272;BME280;7737;51.578;7.268;2023-12-29T01:00:20;100283.03;;;11.29;100.00
15272;BME280;7737;51.578;7.268;2023-12-29T01:02:47;100284.94;;;11.27;100.00
15272;BME280;7737;51.578;7.268;2023-12-29T01:05:15;100281.88;;;11.19;100.00
15272;BME280;7737;51.578;7.268;2023-12-29T01:07:41;100279.38;;;11.16;100.00
15272;BME280;7737;51.578;7.268;2023-12-29T01:10:09;100266.78;;;11.20;100.00
15272;BME280;7737;51.578;7.268;2023-12-29T01:12:36;100262.28;;;11.20;100.00
15272;BME280;7737;51.578;7.268;2023-12-29T01:15:03;100265.72;;;11.22;100.00
15272;BME280;7737;51.578;7.268;2023-12-29T01:17:30;100264.00;;;11.21;100.00
15272;BME280;7737;51.578;7.268;2023-12-29T01:19:56;100256.88;;;11.22;100.00
15272;BME280;7737;51.578;7.268;2023-12-29T01:22:23;100261.06;;;11.26;100.00
15272;BME280;7737;51.578;7.268;2023-12-29T01:24:50;100269.16;;;11.24;100.00
15272;BME280;7737;51.578;7.268;2023-12-29T01:27:18;100272.56;;;11.26;100.00
15272;BME280;7737;51.578;7.268;2023-12-29T01:29:44;100258.56;;;11.23;100.00
15272;BME280;7737;51.578;7.268;2023-12-29T01:32:11;100261.53;;;11.18;100.00
15272;BME280;7737;51.578;7.268;2023-12-29T01:34:37;100252.50;;;11.21;100.00
15272;BME280;7737;51.578;7.268;2023-12-29T01:37:04;100258.84;;;11.18;100.00
15272;BME280;7737;51.578;7.268;2023-12-29T01:39:30;100246.53;;;11.17;100.00
15272;BME280;7737;51.578;7.268;2023-12-29T01:41:57;100246.13;;;11.23;100.00
15272;BME280;7737;51.578;7.268;2023-12-29T01:44:25;100243.31;;;11.26;100.00
15272;BME280;7737;51.578;7.268;2023-12-29T01:46:53;100250.41;;;11.26;100.00
15272;BME280;7737;51.578;7.268;2023-12-29T01:49:22;100243.75;;;11.19;100.00
15272;BME280;7737;51.578;7.268;2023-12-29T01:51:49;100250.47;;;11.10;100.00
15272;BME280;7737;51.578;7.268;2023-12-29T01:54:17;100260.84;;;11.15;100.00
15272;BME280;7737;51.578;7.268;2023-12-29T01:56:45;100260.94;;;11.13;100.00
15272;BME280;7737;51.578;7.268;2023-12-29T01:59:12;100256.75;;;11.09;100.00
15272;BME280;7737;51.578;7.268;2023-12-29T02:01:40;100271.16;;;11.05;100.00
15272;BME280;7737;51.578;7.268;2023-12-29T02:04:07;100268.03;;;10.98;100.00
15272;BME280;7737;51.578;7.268;2023-12-29T02:06:34;100272.25;;;10.87;100.00
15272;BME280;7737;51.578;7.268;2023-12-29T02:09:01;100291.75;;;10.72;100.00
15272;BME280;7737;51.578;7.268;2023-12-29T02:11:29;100289.00;;;10.58;100.00
15272;BME280;7737;51.578;7.268;2023-12-29T02:13:56;100307.19;;;10.50;100.00
15272;BME280;7737;51.578;7.268;2023-12-29T02:16:29;100317.47;;;10.40;100.00
15272;BME280;7737;51.578;7.268;2023-12-29T02:18:58;100323.09;;;10.34;100.00
15272;BME280;7737;51.578;7.268;2023-12-29T02:21:26;100324.56;;;10.24;100.00
15272;BME280;7737;51.578;7.268;2023-12-29T02:23:53;100333.72;;;10.18;100.00
15272;BME280;7737;51.578;7.268;2023-12-29T02:26:23;100334.91;;;10.13;100.00
15272;BME280;7737;51.578;7.268;2023-12-29T02:28:56;100337.78;;;10.08;100.00
15272;BME280;7737;51.578;7.268;2023-12-29T02:31:27;100338.09;;;10.02;100.00
15272;BME280;7737;51.578;7.268;2023-12-29T02:33:57;100333.97;;;9.97;100.00
15272;BME280;7737;51.578;7.268;2023-12-29T02:36:26;100333.63;;;9.87;100.00
15272;BME280;7737;51.578;7.268;2023-12-29T02:38:52;100331.72;;;9.89;100.00
15272;BME280;7737;51.578;7.268;2023-12-29T02:41:21;100318.50;;;9.88;100.00
15272;BME280;7737;51.578;7.268;2023-12-29T02:43:48;100324.16;;;9.82;100.00
15272;BME280;7737;51.578;7.268;2023-12-29T02:46:14;100326.22;;;9.76;100.00
15272;BME280;7737;51.578;7.268;2023-12-29T02:51:16;100336.13;;;9.73;100.00
15272;BME280;7737;51.578;7.268;2023-12-29T02:53:42;100335.34;;;9.71;100.00
15272;BME280;7737;51.578;7.268;2023-12-29T02:56:09;100340.50;;;9.74;100.00
15272;BME280;7737;51.578;7.268;2023-12-29T02:58:37;100323.00;;;9.70;100.00
15272;BME280;7737;51.578;7.268;2023-12-29T03:01:03;100281.31;;;9.72;100.00
15272;BME280;7737;51.578;7.268;2023-12-29T03:03:29;100260.06;;;9.72;100.00
15272;BME280;7737;51.578;7.268;2023-12-29T03:05:56;100282.44;;;9.68;100.00
15272;BME280;7737;51.578;7.268;2023-12-29T03:08:22;100288.59;;;9.68;100.00
15272;BME280;7737;51.578;7.268;2023-12-29T03:10:49;100291.25;;;9.68;100.00
15272;BME280;7737;51.578;7.268;2023-12-29T03:13:15;100285.06;;;9.68;100.00
15272;BME280;7737;51.578;7.268;2023-12-29T03:15:43;100293.03;;;9.68;100.00
15272;BME280;7737;51.578;7.268;2023-12-29T03:18:10;100287.63;;;9.69;100.00
15272;BME280;7737;51.578;7.268;2023-12-29T03:20:36;100285.78;;;9.71;100.00
15272;BME280;7737;51.578;7.268;2023-12-29T03:23:03;100295.28;;;9.75;100.00
15272;BME280;7737;51.578;7.268;2023-12-29T03:25:30;100287.31;;;9.75;100.00
15272;BME280;7737;51.578;7.268;2023-12-29T03:27:56;100281.75;;;9.80;100.00
15272;BME280;7737;51.578;7.268;2023-12-29T03:30:24;100284.41;;;9.80;100.00
15272;BME280;7737;51.578;7.268;2023-12-29T03:32:52;100281.53;;;9.85;100.00
15272;BME280;7737;51.578;7.268;2023-12-29T03:35:18;100283.94;;;9.89;100.00
15272;BME280;7737;51.578;7.268;2023-12-29T03:37:45;100276.91;;;9.88;100.00
15272;BME280;7737;51.578;7.268;2023-12-29T03:40:11;100275.97;;;9.89;100.00
15272;BME280;7737;51.578;7.268;2023-12-29T03:42:39;100283.94;;;9.89;100.00
15272;BME280;7737;51.578;7.268;2023-12-29T03:45:06;100280.31;;;9.90;100.00
15272;BME280;7737;51.578;7.268;2023-12-29T03:47:33;100275.00;;;9.90;100.00
15272;BME280;7737;51.578;7.268;2023-12-29T03:50:02;100268.72;;;9.93;100.00
15272;BME280;7737;51.578;7.268;2023-12-29T03:52:28;100260.66;;;9.94;100.00
15272;BME280;7737;51.578;7.268;2023-12-29T03:54:55;100256.03;;;9.98;100.00
15272;BME280;7737;51.578;7.268;2023-12-29T03:57:21;100256.72;;;10.01;100.00
15272;BME280;7737;51.578;7.268;2023-12-29T03:59:48;100255.00;;;10.00;100.00
15272;BME280;7737;51.578;7.268;2023-12-29T04:02:14;100253.13;;;10.02;100.00
15272;BME280;7737;51.578;7.268;2023-12-29T04:04:42;100252.09;;;10.05;100.00
15272;BME280;7737;51.578;7.268;2023-12-29T04:07:10;100255.69;;;10.04;100.00
15272;BME280;7737;51.578;7.268;2023-12-29T04:09:37;100266.31;;;10.04;100.00
15272;BME280;7737;51.578;7.268;2023-12-29T04:12:03;100259.97;;;10.06;100.00
15272;BME280;7737;51.578;7.268;2023-12-29T04:14:30;100258.88;;;10.10;100.00
15272;BME280;7737;51.578;7.268;2023-12-29T04:16:56;100259.69;;;10.12;100.00
15272;BME280;7737;51.578;7.268;2023-12-29T04:19:24;100256.38;;;10.07;100.00
15272;BME280;7737;51.578;7.268;2023-12-29T04:21:50;100259.81;;;10.09;100.00
15272;BME280;7737;51.578;7.268;2023-12-29T04:24:18;100262.47;;;10.09;100.00
15272;BME280;7737;51.578;7.268;2023-12-29T04:26:45;100257.16;;;10.09;100.00
15272;BME280;7737;51.578;7.268;2023-12-29T04:29:11;100241.38;;;10.06;100.00
15272;BME280;7737;51.578;7.268;2023-12-29T04:31:38;100240.16;;;10.13;100.00
15272;BME280;7737;51.578;7.268;2023-12-29T04:34:04;100245.47;;;10.13;100.00
15272;BME280;7737;51.578;7.268;2023-12-29T04:36:32;100245.47;;;10.13;100.00
15272;BME280;7737;51.578;7.268;2023-12-29T04:38:58;100247.00;;;10.17;100.00
15272;BME280;7737;51.578;7.268;2023-12-29T04:41:26;100247.00;;;10.17;100.00
15272;BME280;7737;51.578;7.268;2023-12-29T04:43:53;100250.50;;;10.18;100.00
15272;BME280;7737;51.578;7.268;2023-12-29T04:46:19;100254.19;;;10.15;100.00
15272;BME280;7737;51.578;7.268;2023-12-29T04:48:46;100261.03;;;10.19;100.00
15272;BME280;7737;51.578;7.268;2023-12-29T04:51:12;100261.03;;;10.19;100.00
15272;BME280;7737;51.578;7.268;2023-12-29T04:53:38;100251.13;;;10.23;100.00
15272;BME280;7737;51.578;7.268;2023-12-29T04:56:05;100262.44;;;10.26;100.00
15272;BME280;7737;51.578;7.268;2023-12-29T04:58:33;100263.19;;;10.28;100.00
15272;BME280;7737;51.578;7.268;2023-12-29T05:00:59;100267.41;;;10.32;100.00
15272;BME280;7737;51.578;7.268;2023-12-29T05:03:26;100251.13;;;10.38;100.00
15272;BME280;7737;51.578;7.268;2023-12-29T05:05:52;100247.69;;;10.36;100.00
15272;BME280;7737;51.578;7.268;2023-12-29T05:08:19;100254.13;;;10.32;100.00
15272;BME280;7737;51.578;7.268;2023-12-29T05:10:45;100251.13;;;10.38;100.00
15272;BME280;7737;51.578;7.268;2023-12-29T05:13:12;100256.25;;;10.42;100.00
15272;BME280;7737;51.578;7.268;2023-12-29T05:15:40;100265.25;;;10.39;100.00
15272;BME280;7737;51.578;7.268;2023-12-29T05:18:06;100266.19;;;10.38;100.00
15272;BME280;7737;51.578;7.268;2023-12-29T05:20:33;100262.50;;;10.40;100.00
15272;BME280;7737;51.578;7.268;2023-12-29T05:22:59;100279.41;;;10.39;100.00
15272;BME280;7737;51.578;7.268;2023-12-29T05:25:26;100273.13;;;10.40;100.00
15272;BME280;7737;51.578;7.268;2023-12-29T05:27:52;100269.66;;;10.40;100.00
15272;BME280;7737;51.578;7.268;2023-12-29T05:30:19;100255.41;;;10.41;100.00
15272;BME280;7737;51.578;7.268;2023-12-29T05:32:47;100256.34;;;10.40;100.00
15272;BME280;7737;51.578;7.268;2023-12-29T05:35:13;100253.53;;;10.43;100.00
15272;BME280;7737;51.578;7.268;2023-12-29T05:37:40;100262.59;;;10.39;100.00
15272;BME280;7737;51.578;7.268;2023-12-29T05:40:07;100269.97;;;10.34;100.00
15272;BME280;7737;51.578;7.268;2023-12-29T05:42:34;100247.00;;;10.33;100.00
15272;BME280;7737;51.578;7.268;2023-12-29T05:45:00;100253.94;;;10.35;100.00
15272;BME280;7737;51.578;7.268;2023-12-29T05:47:26;100245.47;;;10.45;100.00
15272;BME280;7737;51.578;7.268;2023-12-29T05:49:54;100251.03;;;10.40;100.00
15272;BME280;7737;51.578;7.268;2023-12-29T05:52:21;100253.00;;;10.36;100.00
15272;BME280;7737;51.578;7.268;2023-12-29T05:54:47;100244.09;;;10.37;100.00
15272;BME280;7737;51.578;7.268;2023-12-29T05:57:14;100263.63;;;10.36;100.00
15272;BME280;7737;51.578;7.268;2023-12-29T05:59:40;100265.16;;;10.40;100.00
15272;BME280;7737;51.578;7.268;2023-12-29T06:02:07;100265.00;;;10.44;100.00
15272;BME280;7737;51.578;7.268;2023-12-29T06:04:33;100250.78;;;10.45;100.00
15272;BME280;7737;51.578;7.268;2023-12-29T06:07:01;100254.88;;;10.50;100.00
15272;BME280;7737;51.578;7.268;2023-12-29T06:09:28;100259.50;;;10.47;100.00
15272;BME280;7737;51.578;7.268;2023-12-29T06:11:54;100257.97;;;10.43;100.00
15272;BME280;7737;51.578;7.268;2023-12-29T06:14:21;100260.81;;;10.39;100.00
15272;BME280;7737;51.578;7.268;2023-12-29T06:16:47;100257.97;;;10.43;100.00
15272;BME280;7737;51.578;7.268;2023-12-29T06:19:14;100258.31;;;10.36;100.00
15272;BME280;7737;51.578;7.268;2023-12-29T06:21:41;100255.41;;;10.41;100.00
15272;BME280;7737;51.578;7.268;2023-12-29T06:24:09;100272.38;;;10.38;100.00
15272;BME280;7737;51.578;7.268;2023-12-29T06:26:36;100277.50;;;10.42;100.00
15272;BME280;7737;51.578;7.268;2023-12-29T06:29:06;100280.16;;;10.42;100.00
15272;BME280;7737;51.578;7.268;2023-12-29T06:31:33;100268.44;;;10.46;100.00
15272;BME280;7737;51.578;7.268;2023-12-29T06:33:59;100268.63;;;10.43;100.00
15272;BME280;7737;51.578;7.268;2023-12-29T06:36:26;100271.28;;;10.43;100.00
15272;BME280;7737;51.578;7.268;2023-12-29T06:38:52;100275.63;;;10.44;100.00
15272;BME280;7737;51.578;7.268;2023-12-29T06:41:20;100277.34;;;10.45;100.00
15272;BME280;7737;51.578;7.268;2023-12-29T06:43:47;100256.84;;;10.47;100.00
15272;BME280;7737;51.578;7.268;2023-12-29T06:46:16;100250.44;;;10.51;100.00
15272;BME280;7737;51.578;7.268;2023-12-29T06:48:43;100253.94;;;10.51;100.00
15272;BME280;7737;51.578;7.268;2023-12-29T06:51:15;100255.06;;;10.47;100.00
15272;BME280;7737;51.578;7.268;2023-12-29T06:53:42;100259.50;;;10.47;100.00
15272;BME280;7737;51.578;7.268;2023-12-29T06:56:12;100265.69;;;10.47;100.00
15272;BME280;7737;51.578;7.268;2023-12-29T06:58:40;100254.03;;;10.50;100.00
15272;BME280;7737;51.578;7.268;2023-12-29T07:01:07;100258.31;;;10.52;100.00
15272;BME280;7737;51.578;7.268;2023-12-29T07:03:33;100264.31;;;10.56;100.00
15272;BME280;7737;51.578;7.268;2023-12-29T07:06:00;100261.06;;;10.51;100.00
15272;BME280;7737;51.578;7.268;2023-12-29T07:08:27;100252.13;;;10.52;100.00
15272;BME280;7737;51.578;7.268;2023-12-29T07:10:54;100249.25;;;10.56;100.00
15272;BME280;7737;51.578;7.268;2023-12-29T07:13:20;100251.97;;;10.55;100.00
15272;BME280;7737;51.578;7.268;2023-12-29T07:15:48;100253.75;;;10.54;100.00
15272;BME280;7737;51.578;7.268;2023-12-29T07:18:15;100256.25;;;10.42;100.00
15272;BME280;7737;51.578;7.268;2023-12-29T07:20:42;100264.13;;;10.27;100.00
15272;BME280;7737;51.578;7.268;2023-12-29T07:23:08;100251.53;;;10.15;100.00
15272;BME280;7737;51.578;7.268;2023-12-29T07:25:35;100255.06;;;10.16;100.00
15272;BME280;7737;51.578;7.268;2023-12-29T07:28:01;100258.09;;;10.08;100.00
15272;BME280;7737;51.578;7.268;2023-12-29T07:30:28;100261.97;;;10.03;100.00
15272;BME280;7737;51.578;7.268;2023-12-29T07:32:56;100253.13;;;10.02;100.00
15272;BME280;7737;51.578;7.268;2023-12-29T07:35:22;100255.00;;;10.00;100.00
15272;BME280;7737;51.578;7.268;2023-12-29T07:37:49;100254.06;;;10.01;100.00
15272;BME280;7737;51.578;7.268;2023-12-29T07:40:15;100244.56;;;9.97;100.00
15272;BME280;7737;51.578;7.268;2023-12-29T07:42:42;100249.00;;;9.97;100.00
15272;BME280;7737;51.578;7.268;2023-12-29T07:45:11;100250.72;;;9.98;100.00
15272;BME280;7737;51.578;7.268;2023-12-29T07:47:37;100256.88;;;9.98;100.00
15272;BME280;7737;51.578;7.268;2023-12-29T07:50:06;100254.47;;;9.94;100.00
15272;BME280;7737;51.578;7.268;2023-12-29T07:52:32;100240.44;;;9.92;100.00
15272;BME280;7737;51.578;7.268;2023-12-29T07:54:59;100253.88;;;9.89;100.00
15272;BME280;7737;51.578;7.268;2023-12-29T07:57:26;100250.34;;;9.88;100.00
15272;BME280;7737;51.578;7.268;2023-12-29T07:59:53;100254.91;;;9.86;100.00
15272;BME280;7737;51.578;7.268;2023-12-29T08:02:19;100253.16;;;9.85;100.00
15272;BME280;7737;51.578;7.268;2023-12-29T08:04:46;100254.13;;;9.84;100.00
15272;BME280;7737;51.578;7.268;2023-12-29T08:07:15;100260.31;;;9.85;100.00
15272;BME280;7737;51.578;7.268;2023-12-29T08:09:42;100259.28;;;9.87;100.00
15272;BME280;7737;51.578;7.268;2023-12-29T08:12:09;100265.34;;;9.89;100.00
15272;BME280;7737;51.578;7.268;2023-12-29T08:14:36;100265.41;;;9.88;100.00
15272;BME280;7737;51.578;7.268;2023-12-29T08:17:02;100282.97;;;9.90;100.00
15272;BME280;7737;51.578;7.268;2023-12-29T08:19:29;100281.19;;;9.91;100.00
15272;BME280;7737;51.578;7.268;2023-12-29T08:21:55;100304.16;;;9.92;100.00
15272;BME280;7737;51.578;7.268;2023-12-29T08:24:23;100290.78;;;9.93;100.00
15272;BME280;7737;51.578;7.268;2023-12-29T08:26:50;100293.44;;;9.93;100.00
15272;BME280;7737;51.578;7.268;2023-12-29T08:29:16;100284.44;;;9.96;100.00
15272;BME280;7737;51.578;7.268;2023-12-29T08:31:44;100282.66;;;9.96;100.00
15272;BME280;7737;51.578;7.268;2023-12-29T08:34:10;100289.53;;;10.00;100.00
15272;BME280;7737;51.578;7.268;2023-12-29T08:36:37;100288.56;;;10.01;100.00
15272;BME280;7737;51.578;7.268;2023-12-29T08:39:03;100289.44;;;10.02;100.00
15272;BME280;7737;51.578;7.268;2023-12-29T08:41:31;100288.56;;;10.01;100.00
15272;BME280;7737;51.578;7.268;2023-12-29T08:43:58;100275.91;;;10.06;100.00
15272;BME280;7737;51.578;7.268;2023-12-29T08:46:24;100270.78;;;10.03;100.00
15272;BME280;7737;51.578;7.268;2023-12-29T08:48:51;100262.19;;;9.98;100.00
15272;BME280;7737;51.578;7.268;2023-12-29T08:51:17;100264.69;;;10.01;100.00
15272;BME280;7737;51.578;7.268;2023-12-29T08:53:44;100261.16;;;10.01;100.00
15272;BME280;7737;51.578;7.268;2023-12-29T08:56:10;100251.50;;;10.00;100.00
15272;BME280;7737;51.578;7.268;2023-12-29T08:58:40;100265.47;;;10.03;100.00
15272;BME280;7737;51.578;7.268;2023-12-29T09:01:06;100272.47;;;10.04;100.00
15272;BME280;7737;51.578;7.268;2023-12-29T09:03:33;100279.53;;;10.05;100.00
15272;BME280;7737;51.578;7.268;2023-12-29T09:05:59;100281.41;;;10.03;100.00
15272;BME280;7737;51.578;7.268;2023-12-29T09:08:27;100285.69;;;10.06;100.00
15272;BME280;7737;51.578;7.268;2023-12-29T09:10:53;100292.41;;;10.13;100.00
15272;BME280;7737;51.578;7.268;2023-12-29T09:13:20;100293.78;;;10.20;100.00
15272;BME280;7737;51.578;7.268;2023-12-29T09:15:49;100284.19;;;10.17;100.00
15272;BME280;7737;51.578;7.268;2023-12-29T09:18:15;100273.94;;;10.27;100.00
15272;BME280;7737;51.578;7.268;2023-12-29T09:20:42;100286.25;;;10.28;100.00
15272;BME280;7737;51.578;7.268;2023-12-29T09:23:08;100283.84;;;10.23;100.00
15272;BME280;7737;51.578;7.268;2023-12-29T09:25:35;100265.97;;;10.27;100.00
15272;BME280;7737;51.578;7.268;2023-12-29T09:28:02;100267.41;;;10.32;100.00
15272;BME280;7737;51.578;7.268;2023-12-29T09:30:29;100281.78;;;10.28;100.00
15272;BME280;7737;51.578;7.268;2023-12-29T09:32:57;100265.75;;;10.30;100.00
15272;BME280;7737;51.578;7.268;2023-12-29T09:35:23;100267.59;;;10.29;100.00
15272;BME280;7737;51.578;7.268;2023-12-29T09:37:50;100282.72;;;10.27;100.00
15272;BME280;7737;51.578;7.268;2023-12-29T09:40:17;100291.66;;;10.26;100.00
15272;BME280;7737;51.578;7.268;2023-12-29T09:42:44;100290.53;;;10.30;100.00
15272;BME280;7737;51.578;7.268;2023-12-29T09:45:12;100293.28;;;10.29;100.00
15272;BME280;7737;51.578;7.268;2023-12-29T09:47:39;100297.56;;;10.31;100.00
15272;BME280;7737;51.578;7.268;2023-12-29T09:50:10;100306.31;;;10.33;100.00
15272;BME280;7737;51.578;7.268;2023-12-29T09:52:38;100314.88;;;10.38;100.00
15272;BME280;7737;51.578;7.268;2023-12-29T09:55:07;100305.97;;;10.39;100.00
15272;BME280;7737;51.578;7.268;2023-12-29T09:57:36;100316.78;;;10.36;100.00
15272;BME280;7737;51.578;7.268;2023-12-29T10:00:03;100315.03;;;10.35;100.00
15272;BME280;7737;51.578;7.268;2023-12-29T10:02:30;100318.66;;;10.34;100.00
15272;BME280;7737;51.578;7.268;2023-12-29T10:04:57;100315.25;;;10.32;100.00
15272;BME280;7737;51.578;7.268;2023-12-29T10:07:25;100297.41;;;10.34;100.00
15272;BME280;7737;51.578;7.268;2023-12-29T10:09:55;100294.59;;;10.37;100.00
15272;BME280;7737;51.578;7.268;2023-12-29T10:12:24;100299.81;;;10.39;100.00
15272;BME280;7737;51.578;7.268;2023-12-29T10:14:57;100321.75;;;10.43;100.00
15272;BME280;7737;51.578;7.268;2023-12-29T10:17:31;100296.13;;;10.42;100.00
15272;BME280;7737;51.578;7.268;2023-12-29T10:20:08;100299.81;;;10.39;100.00
15272;BME280;7737;51.578;7.268;2023-12-29T10:22:45;100288.66;;;10.32;100.00
15272;BME280;7737;51.578;7.268;2023-12-29T10:25:15;100300.13;;;10.33;100.00
15272;BME280;7737;51.578;7.268;2023-12-29T10:27:42;100291.41;;;10.31;100.00
15272;BME280;7737;51.578;7.268;2023-12-29T10:30:11;100279.03;;;10.30;100.00
15272;BME280;7737;51.578;7.268;2023-12-29T10:32:37;100276.31;;;10.31;100.00
15272;BME280;7737;51.578;7.268;2023-12-29T10:35:08;100280.69;;;10.32;100.00
15272;BME280;7737;51.578;7.268;2023-12-29T10:37:36;100292.09;;;10.34;100.00
15272;BME280;7737;51.578;7.268;2023-12-29T10:40:05;100277.84;;;10.35;100.00
15272;BME280;7737;51.578;7.268;2023-12-29T10:42:32;100287.53;;;10.36;100.00
15272;BME280;7737;51.578;7.268;2023-12-29T10:45:05;100284.88;;;10.36;100.00
15272;BME280;7737;51.578;7.268;2023-12-29T10:47:33;100292.84;;;10.36;100.00
15272;BME280;7737;51.578;7.268;2023-12-29T10:50:01;100289.06;;;10.40;100.00
15272;BME280;7737;51.578;7.268;2023-12-29T10:52:29;100302.34;;;10.40;100.00
15272;BME280;7737;51.578;7.268;2023-12-29T10:55:05;100299.63;;;10.42;100.00
15272;BME280;7737;51.578;7.268;2023-12-29T10:57:32;100304.69;;;10.47;100.00
15272;BME280;7737;51.578;7.268;2023-12-29T10:59:59;100289.50;;;10.49;100.00
15272;BME280;7737;51.578;7.268;2023-12-29T11:02:26;100282.31;;;10.51;100.00
15272;BME280;7737;51.578;7.268;2023-12-29T11:05:01;100288.84;;;10.61;100.00
15272;BME280;7737;51.578;7.268;2023-12-29T11:07:32;100283.34;;;10.64;100.00
15272;BME280;7737;51.578;7.268;2023-12-29T11:10:00;100288.66;;;10.64;100.00
15272;BME280;7737;51.578;7.268;2023-12-29T11:12:30;100269.09;;;10.65;100.00
15272;BME280;7737;51.578;7.268;2023-12-29T11:14:58;100273.13;;;10.72;100.00
15272;BME280;7737;51.578;7.268;2023-12-29T11:17:26;100286.25;;;10.75;100.00
15272;BME280;7737;51.578;7.268;2023-12-29T11:19:52;100285.03;;;10.80;100.00
15272;BME280;7737;51.578;7.268;2023-12-29T11:22:20;100280.56;;;10.81;100.00
15272;BME280;7737;51.578;7.268;2023-12-29T11:24:47;100283.16;;;10.82;100.00
15272;BME280;7737;51.578;7.268;2023-12-29T11:27:14;100291.97;;;10.83;100.00
15272;BME280;7737;51.578;7.268;2023-12-29T11:29:44;100286.41;;;10.87;100.00
15272;BME280;7737;51.578;7.268;2023-12-29T11:32:15;100281.94;;;10.88;100.00
15272;BME280;7737;51.578;7.268;2023-12-29T11:34:54;100280.06;;;10.90;100.00
15272;BME280;7737;51.578;7.268;2023-12-29T11:37:29;100276.34;;;10.92;100.00
15272;BME280;7737;51.578;7.268;2023-12-29T11:40:09;100270.69;;;10.98;100.00
15272;BME280;7737;51.578;7.268;2023-12-29T11:42:40;100272.50;;;10.98;100.00
15272;BME280;7737;51.578;7.268;2023-12-29T11:45:28;100269.66;;;11.01;100.00
15272;BME280;7737;51.578;7.268;2023-12-29T11:47:54;100265.09;;;11.03;100.00
15272;BME280;7737;51.578;7.268;2023-12-29T11:50:29;100266.19;;;10.99;100.00
15272;BME280;7737;51.578;7.268;2023-12-29T11:52:57;100264.22;;;11.02;100.00
15272;BME280;7737;51.578;7.268;2023-12-29T11:55:28;100260.53;;;11.05;100.00
15272;BME280;7737;51.578;7.268;2023-12-29T11:57:55;100261.13;;;11.10;100.00
15272;BME280;7737;51.578;7.268;2023-12-29T12:00:41;100260.94;;;11.13;100.00
15272;BME280;7737;51.578;7.268;2023-12-29T12:03:16;100250.19;;;11.15;100.00
15272;BME280;7737;51.578;7.268;2023-12-29T12:05:45;100253.72;;;11.15;100.00
15272;BME280;7737;51.578;7.268;2023-12-29T12:08:26;100256.19;;;11.18;100.00
15272;BME280;7737;51.578;7.268;2023-12-29T12:10:54;100246.13;;;11.23;100.00
15272;BME280;7737;51.578;7.268;2023-12-29T12:13:43;100232.06;;;11.21;100.00
15272;BME280;7737;51.578;7.268;2023-12-29T12:16:46;100254.13;;;11.23;100.00
15272;BME280;7737;51.578;7.268;2023-12-29T12:19:14;100247.09;;;11.22;100.00
15272;BME280;7737;51.578;7.268;2023-12-29T12:21:45;100243.41;;;11.25;100.00
15272;BME280;7737;51.578;7.268;2023-12-29T12:24:13;100253.38;;;11.21;100.00
15272;BME280;7737;51.578;7.268;2023-12-29T12:26:40;100249.75;;;11.22;100.00
15272;BME280;7737;51.578;7.268;2023-12-29T12:29:07;100246.31;;;11.20;100.00
15272;BME280;7737;51.578;7.268;2023-12-29T12:31:35;100249.09;;;11.19;100.00
15272;BME280;7737;51.578;7.268;2023-12-29T12:34:02;100247.09;;;11.22;100.00
15272;BME280;7737;51.578;7.268;2023-12-29T12:36:30;100239.88;;;11.24;100.00
15272;BME280;7737;51.578;7.268;2023-12-29T12:38:57;100233.81;;;11.22;100.00
15272;BME280;7737;51.578;7.268;2023-12-29T12:41:25;100249.75;;;11.22;100.00
15272;BME280;7737;51.578;7.268;2023-12-29T12:43:57;100261.34;;;11.21;100.00
15272;BME280;7737;51.578;7.268;2023-12-29T12:46:27;100250.34;;;11.27;100.00
15272;BME280;7737;51.578;7.268;2023-12-29T12:48:55;100250.25;;;11.29;100.00
15272;BME280;7737;51.578;7.268;2023-12-29T12:51:22;100240.28;;;11.32;100.00
15272;BME280;7737;51.578;7.268;2023-12-29T12:53:49;100226.28;;;11.29;100.00
15272;BME280;7737;51.578;7.268;2023-12-29T12:56:17;100238.72;;;11.28;100.00
15272;BME280;7737;51.578;7.268;2023-12-29T12:58:44;100234.97;;;11.32;100.00